Gore, Virginia
Current Conditions -  °F | °C
As of 3:55 AM on Wednesday 22 Oct 2014 (Local Time) from KOKV Reporting Station
Overcast Overcast  
Wind Chill: 52°   Ceiling: 2800
Heat Index: 52°   Visibility: 10mi
Dew Point: 45°   Wind: 13mph
Humidity: 76%   Direction: 310°NW
Pressure: 29.92"   Gusts: 16mph
Location:  39.26°N, 78.33°W
Report Text: KOKV 220755Z AUTO 31011G14KT 10SM OVC028 11/07 A2992 RMK AO2
Loading
Personal Weather Stations






























Interactive Weather Map
Tropical Storm Tracking
New forecast layout! Learn more

10-Day Weather Forecast

Advertisements
Track Severe Weather on mobile